Time;durP1;ratioP1;P1;durP2;ratioP2;P2;SDS_P1;SDS_P2;PMS_P1;PMS_P2;Temp;Humidity;BMP_temperature;BMP_pressure;BME280_temperature;BME280_humidity;BME280_pressure;Samples;Min_cycle;Max_cycle;Signal;HPM_P1;HPM_P2
2022/12/26 00:00:17;;;;;;;2.13;1.20;;;4.90;99.90;;;;;;20166554;29;20452;-61
2022/12/26 00:10:18;;;;;;;2.10;1.40;;;5.20;99.90;;;;;;20194693;29;20407;-62
2022/12/26 00:20:20;;;;;;;1.15;0.73;;;5.60;99.90;;;;;;20197058;29;20118;-62
2022/12/26 00:30:22;;;;;;;1.13;0.63;;;6.10;99.90;;;;;;20196202;29;20045;-62
2022/12/26 00:40:23;;;;;;;2.42;1.02;;;6.70;99.90;;;;;;20195708;29;20045;-63
2022/12/26 00:50:25;;;;;;;3.25;1.10;;;6.70;99.90;;;;;;20195178;29;20419;-62
2022/12/26 01:00:27;;;;;;;1.33;0.50;;;6.60;99.90;;;;;;20194210;29;20041;-63
2022/12/26 01:10:28;;;;;;;0.90;0.57;;;6.70;99.90;;;;;;20192975;29;20117;-64
2022/12/26 01:20:30;;;;;;;0.90;0.60;;;6.80;99.90;;;;;;20174803;29;20049;-62
2022/12/26 01:30:32;;;;;;;0.95;0.60;;;7.10;99.90;;;;;;20191743;29;20045;-62
2022/12/26 01:40:33;;;;;;;0.90;0.40;;;7.20;99.90;;;;;;20191409;29;20105;-62
2022/12/26 01:50:47;;;;;;;1.10;0.75;;;7.30;99.90;;;;;;20190893;29;20061;-63
2022/12/26 02:00:49;;;;;;;3.17;1.70;;;7.10;99.90;;;;;;20157913;29;20101;-63
2022/12/26 02:11:07;;;;;;;3.55;1.45;;;7.00;99.90;;;;;;20188235;29;20049;-63
2022/12/26 02:21:36;;;;;;;2.80;1.40;;;6.90;99.90;;;;;;20186114;29;20041;-62
2022/12/26 02:31:59;;;;;;;2.00;1.05;;;7.00;99.90;;;;;;20187355;29;20049;-62
2022/12/26 02:42:10;;;;;;;2.22;0.90;;;7.10;99.90;;;;;;20154280;29;20052;-63
2022/12/26 03:13:30;;;;;;;2.72;1.30;;;7.40;99.90;;;;;;20184635;29;20057;-62
2022/12/26 03:23:33;;;;;;;2.05;1.20;;;7.50;99.90;;;;;;20183892;29;20563;-62
2022/12/26 04:47:10;;;;;;;1.05;0.68;;;8.00;99.90;;;;;;20181272;29;20045;-62
2022/12/26 04:57:11;;;;;;;0.70;0.50;;;8.00;99.90;;;;;;20193634;29;20093;-62
2022/12/26 05:38:30;;;;;;;1.33;0.70;;;8.10;99.90;;;;;;20191297;29;20404;-62
2022/12/26 05:48:32;;;;;;;2.85;0.60;;;8.10;99.90;;;;;;20174507;29;20081;-62
2022/12/26 05:58:34;;;;;;;0.80;0.52;;;8.00;99.90;;;;;;20189935;29;20045;-62
2022/12/26 06:08:36;;;;;;;0.82;0.50;;;8.10;99.90;;;;;;20188075;29;20109;-62
2022/12/26 06:18:38;;;;;;;0.95;0.60;;;8.10;99.90;;;;;;20188647;29;20045;-62
2022/12/26 06:28:41;;;;;;;1.70;0.77;;;8.20;99.90;;;;;;20188405;29;20131;-63
2022/12/26 06:38:43;;;;;;;2.47;0.80;;;7.90;99.90;;;;;;20187168;29;20061;-62
2022/12/26 06:48:45;;;;;;;0.93;0.50;;;8.20;99.90;;;;;;20187021;29;21352;-62
2022/12/26 06:58:47;;;;;;;1.63;0.65;;;8.10;99.90;;;;;;20185650;29;20456;-62
2022/12/26 07:08:50;;;;;;;1.13;0.80;;;8.10;99.90;;;;;;20184743;29;20093;-62
2022/12/26 07:18:54;;;;;;;0.80;0.50;;;7.90;99.90;;;;;;20184924;29;20060;-62
2022/12/26 07:28:57;;;;;;;0.90;0.60;;;7.80;99.90;;;;;;20183981;29;20547;-64
2022/12/26 07:38:59;;;;;;;1.08;0.50;;;8.00;99.90;;;;;;20183297;29;20117;-62
2022/12/26 07:49:02;;;;;;;1.67;0.75;;;7.90;99.90;;;;;;20183357;29;20049;-62
2022/12/26 07:59:04;;;;;;;0.90;0.52;;;8.10;99.90;;;;;;20182990;29;20045;-62
2022/12/26 08:09:05;;;;;;;1.27;0.52;;;8.20;99.90;;;;;;20165950;29;20045;-62
2022/12/26 08:19:07;;;;;;;1.35;0.50;;;8.30;99.90;;;;;;20182198;29;20492;-62
2022/12/26 08:29:10;;;;;;;1.63;1.08;;;8.30;99.90;;;;;;20173802;29;20052;-62
2022/12/26 08:39:14;;;;;;;1.70;0.50;;;8.30;99.90;;;;;;20196227;29;20507;-62
2022/12/26 08:49:16;;;;;;;1.83;0.35;;;8.50;99.90;;;;;;20195742;29;20541;-62
2022/12/26 08:59:18;;;;;;;1.95;0.45;;;8.60;99.90;;;;;;20177826;29;20119;-62
2022/12/26 09:09:20;;;;;;;1.17;0.43;;;8.70;99.90;;;;;;20192962;29;20041;-62
2022/12/26 09:19:21;;;;;;;0.90;0.40;;;8.80;99.90;;;;;;20193630;29;20053;-62
2022/12/26 09:29:23;;;;;;;0.50;0.28;;;8.90;99.90;;;;;;20191785;29;20044;-62
2022/12/26 09:39:25;;;;;;;1.02;0.50;;;9.00;99.90;;;;;;20190787;29;20144;-62
2022/12/26 09:49:32;;;;;;;1.00;0.50;;;9.20;99.90;;;;;;20191352;29;20041;-64
2022/12/26 09:59:59;;;;;;;1.48;0.40;;;9.30;99.90;;;;;;20187973;29;20053;-61
2022/12/26 10:10:10;;;;;;;0.55;0.30;;;9.70;99.90;;;;;;20182991;29;20113;-59
2022/12/26 10:20:30;;;;;;;;;;;10.20;99.90;;;;;;20188972;29;20428;-57
2022/12/26 10:30:40;;;;;;;0.30;0.20;;;11.10;99.90;;;;;;20187873;29;20259;-60
2022/12/26 10:40:45;;;;;;;1.08;0.35;;;11.10;99.90;;;;;;20187406;29;20212;-62
2022/12/26 10:50:49;;;;;;;0.25;0.20;;;11.00;99.90;;;;;;20186037;29;20056;-62
2022/12/26 11:00:50;;;;;;;0.88;0.30;;;11.10;99.90;;;;;;20185796;29;20045;-62
2022/12/26 11:11:20;;;;;;;0.50;0.30;;;10.70;99.90;;;;;;20168195;29;20117;-61
2022/12/26 11:21:24;;;;;;;0.60;0.30;;;10.00;99.90;;;;;;20183892;29;20097;-62
2022/12/26 11:31:30;;;;;;;0.70;0.32;;;10.00;99.90;;;;;;20184543;29;20563;-62
2022/12/26 11:41:40;;;;;;;0.88;0.30;;;10.00;99.90;;;;;;20180268;29;20393;-62
2022/12/26 11:51:45;;;;;;;0.55;0.35;;;9.80;99.90;;;;;;20183195;29;20049;-62
2022/12/26 12:02:09;;;;;;;0.30;0.28;;;9.60;99.90;;;;;;20190158;29;20052;-62
2022/12/26 12:12:17;;;;;;;0.73;0.40;;;9.60;99.90;;;;;;20197829;29;20033;-62
2022/12/26 12:22:56;;;;;;;2.00;0.40;;;9.50;99.90;;;;;;20197763;29;20049;-62
2022/12/26 12:33:12;;;;;;;0.38;0.20;;;9.40;99.90;;;;;;20195814;29;20097;-61
2022/12/26 12:43:33;;;;;;;0.47;0.20;;;9.20;99.90;;;;;;20195740;29;20048;-62
2022/12/26 12:53:40;;;;;;;1.27;0.50;;;9.30;99.90;;;;;;20178649;29;20106;-62
2022/12/26 13:03:55;;;;;;;2.05;0.50;;;9.30;99.90;;;;;;20194793;29;20053;-64
2022/12/26 13:14:15;;;;;;;1.30;1.08;;;8.90;99.90;;;;;;20188610;29;20069;-62
2022/12/26 13:24:46;;;;;;;3.00;1.73;;;8.80;99.90;;;;;;20192830;29;20045;-61
2022/12/26 13:34:50;;;;;;;1.55;1.10;;;8.70;99.90;;;;;;20187709;29;20322;-62
2022/12/26 13:44:52;;;;;;;1.10;0.60;;;8.40;99.90;;;;;;20188213;29;20125;-65
2022/12/26 13:54:55;;;;;;;1.45;0.50;;;8.50;99.90;;;;;;20158211;29;20110;-62
2022/12/26 14:05:08;;;;;;;0.57;0.32;;;8.50;99.90;;;;;;20189465;29;20057;-62
2022/12/26 14:15:24;;;;;;;1.63;0.60;;;8.50;99.90;;;;;;20188960;29;20073;-64
2022/12/26 14:25:47;;;;;;;4.20;1.77;;;8.40;99.90;;;;;;20189225;29;20049;-63
2022/12/26 14:36:20;;;;;;;3.38;0.38;;;8.20;99.90;;;;;;20183929;29;20093;-62
2022/12/26 14:46:48;;;;;;;0.40;0.30;;;8.10;99.90;;;;;;19871720;29;20158;-62
2022/12/26 14:56:50;;;;;;;0.65;0.13;;;8.20;99.90;;;;;;19862047;29;20538;-63
2022/12/26 15:07:23;;;;;;;1.25;0.70;;;8.20;99.90;;;;;;19865921;29;20096;-62
2022/12/26 15:17:34;;;;;;;0.65;0.50;;;8.10;99.90;;;;;;19959725;29;20097;-62
2022/12/26 15:27:42;;;;;;;0.30;0.20;;;7.90;99.90;;;;;;20183806;29;20112;-63
2022/12/26 15:38:14;;;;;;;1.10;0.50;;;8.00;99.90;;;;;;20166475;29;20089;-62
2022/12/26 15:48:24;;;;;;;0.85;0.45;;;8.10;99.90;;;;;;20183708;29;20045;-62
2022/12/26 15:58:37;;;;;;;1.40;0.40;;;8.10;99.90;;;;;;20182298;29;20045;-62
2022/12/26 16:08:46;;;;;;;2.03;0.80;;;8.10;99.90;;;;;;20165408;29;20045;-64
2022/12/26 16:18:48;;;;;;;0.70;0.52;;;8.20;99.90;;;;;;20182425;29;20423;-63
2022/12/26 16:28:52;;;;;;;1.67;0.50;;;8.00;99.90;;;;;;20181385;29;20391;-62
2022/12/26 16:38:54;;;;;;;1.27;0.80;;;8.00;99.90;;;;;;20164600;29;20049;-62
2022/12/26 16:49:00;;;;;;;0.88;0.40;;;7.90;99.90;;;;;;20189245;29;20045;-62
2022/12/26 16:59:03;;;;;;;1.30;0.60;;;8.00;99.90;;;;;;20177793;29;20045;-62
2022/12/26 17:09:12;;;;;;;1.00;0.60;;;8.00;99.90;;;;;;20193144;29;20056;-62
2022/12/26 17:19:20;;;;;;;0.70;0.50;;;8.00;99.90;;;;;;20176859;29;20499;-62
2022/12/26 17:29:35;;;;;;;0.80;0.60;;;7.90;99.90;;;;;;20192034;29;20108;-62
2022/12/26 17:39:38;;;;;;;2.60;0.50;;;7.60;99.90;;;;;;20188077;29;20041;-63
2022/12/26 17:49:41;;;;;;;1.00;0.40;;;7.40;99.90;;;;;;20187297;29;20113;-63
2022/12/26 17:59:42;;;;;;;2.05;0.43;;;7.30;99.90;;;;;;20189719;29;20049;-63
2022/12/26 18:09:45;;;;;;;1.30;0.70;;;7.30;99.90;;;;;;20188518;29;20045;-63
2022/12/26 18:19:48;;;;;;;0.80;0.50;;;7.40;99.90;;;;;;20189167;29;20196;-63
2022/12/26 18:29:50;;;;;;;1.35;0.60;;;7.40;99.90;;;;;;20188173;29;20041;-63
2022/12/26 18:39:52;;;;;;;1.65;0.70;;;7.50;99.90;;;;;;20187331;29;20053;-64
2022/12/26 18:49:53;;;;;;;0.95;0.70;;;7.60;99.90;;;;;;20186599;29;20044;-63
2022/12/26 18:59:55;;;;;;;1.23;0.70;;;7.50;99.90;;;;;;20187529;29;20061;-63
2022/12/26 19:09:59;;;;;;;2.15;1.00;;;7.40;99.90;;;;;;20185981;29;20097;-63
2022/12/26 19:20:01;;;;;;;1.60;1.10;;;7.50;99.90;;;;;;20185367;29;20056;-63
2022/12/26 19:30:04;;;;;;;1.80;1.20;;;7.50;99.90;;;;;;20183656;29;20108;-63
2022/12/26 19:40:07;;;;;;;1.52;1.17;;;7.40;99.90;;;;;;20183269;29;20053;-63
2022/12/26 19:50:11;;;;;;;1.75;1.10;;;7.50;99.90;;;;;;20166723;29;20110;-62
2022/12/26 20:00:13;;;;;;;2.50;1.38;;;7.40;99.90;;;;;;20179638;29;20070;-63
2022/12/26 20:10:15;;;;;;;1.90;1.15;;;7.40;99.90;;;;;;20181982;29;20044;-58
2022/12/26 20:20:17;;;;;;;1.50;0.90;;;7.50;99.90;;;;;;20181018;29;20045;-62
2022/12/26 20:30:19;;;;;;;2.92;1.30;;;7.50;99.90;;;;;;20197199;29;20079;-62
2022/12/26 20:40:21;;;;;;;2.05;1.15;;;7.50;99.90;;;;;;20176980;29;20109;-62
2022/12/26 20:50:24;;;;;;;1.52;0.90;;;7.40;99.90;;;;;;20196135;29;20414;-62
2022/12/26 21:00:26;;;;;;;1.42;0.93;;;7.40;99.90;;;;;;20195657;29;20052;-63
2022/12/26 21:10:28;;;;;;;2.85;0.90;;;7.40;99.90;;;;;;20193868;29;20449;-63
2022/12/26 21:20:31;;;;;;;2.28;1.05;;;7.30;99.90;;;;;;20176846;29;20048;-62
2022/12/26 21:30:33;;;;;;;1.58;0.82;;;7.20;99.90;;;;;;20191826;29;20117;-63
2022/12/26 21:40:35;;;;;;;3.05;1.20;;;7.20;99.90;;;;;;20192300;29;20116;-62
2022/12/26 21:50:36;;;;;;;3.95;1.25;;;7.20;99.90;;;;;;20175360;29;20555;-63
2022/12/26 22:00:38;;;;;;;2.47;1.40;;;7.20;99.90;;;;;;20190961;29;20409;-63
2022/12/26 22:21:11;;;;;;;2.65;1.42;;;7.10;99.90;;;;;;20184893;29;20503;-62
2022/12/26 22:31:19;;;;;;;3.60;1.80;;;7.00;99.90;;;;;;20185067;29;20448;-63
2022/12/26 22:41:21;;;;;;;3.90;1.23;;;6.80;99.90;;;;;;20171637;29;20101;-63
2022/12/26 22:51:25;;;;;;;2.08;0.95;;;6.90;99.90;;;;;;20183245;29;20104;-62
2022/12/26 23:01:27;;;;;;;2.10;1.20;;;6.80;99.90;;;;;;20186428;29;20045;-63
2022/12/26 23:11:31;;;;;;;2.60;1.80;;;7.00;99.90;;;;;;20164212;29;20504;-62
2022/12/26 23:21:37;;;;;;;4.20;2.55;;;7.00;99.90;;;;;;20184320;29;20045;-63
2022/12/26 23:31:39;;;;;;;3.33;2.00;;;6.80;99.90;;;;;;20184704;29;20075;-60
2022/12/26 23:41:40;;;;;;;3.47;1.70;;;6.60;99.90;;;;;;20167892;29;20397;-60
2022/12/26 23:51:42;;;;;;;3.15;1.30;;;6.10;99.90;;;;;;20166415;29;20044;-60
